createdAt,value
2018-11-22T12:16:06.794Z,101426.00
2018-11-22T12:18:37.119Z,101419.00
2018-11-22T12:21:06.320Z,101424.00
2018-11-22T12:23:36.385Z,101429.00
2018-11-22T12:26:06.426Z,101418.00
2018-11-22T12:28:36.374Z,101429.00
2018-11-22T12:31:06.704Z,101425.00
2018-11-22T12:33:39.736Z,101424.00
2018-11-22T12:36:14.854Z,101417.00
2018-11-22T12:38:45.228Z,101420.00
2018-11-22T12:41:15.179Z,101428.00
2018-11-22T12:43:45.328Z,101430.00
2018-11-22T12:46:14.960Z,101414.00
2018-11-22T12:48:46.100Z,101417.00
2018-11-22T12:51:15.881Z,101405.00
2018-11-22T12:53:45.374Z,101409.00
2018-11-22T12:56:14.850Z,101412.00
2018-11-22T12:58:44.774Z,101418.00
2018-11-22T13:01:15.015Z,101409.00
2018-11-22T13:03:47.091Z,101409.00
2018-11-22T13:06:17.561Z,101417.00
2018-11-22T13:08:47.770Z,101418.00
2018-11-22T13:11:17.777Z,101407.00
2018-11-22T13:13:47.928Z,101419.00
2018-11-22T13:16:17.893Z,101409.00
2018-11-22T13:18:48.121Z,101418.00
2018-11-22T13:21:18.077Z,101413.00
2018-11-22T13:23:48.093Z,101418.00
2018-11-22T13:26:17.507Z,101416.00
2018-11-22T13:28:47.815Z,101428.00
2018-11-22T13:31:17.285Z,101415.00
2018-11-22T13:33:47.089Z,101416.00
2018-11-22T13:36:17.235Z,101414.00
2018-11-22T13:38:47.163Z,101411.00
2018-11-22T13:41:17.203Z,101419.00
2018-11-22T13:43:46.815Z,101428.00
2018-11-22T13:46:17.053Z,101420.00
2018-11-22T13:48:47.093Z,101411.00
2018-11-22T13:51:16.750Z,101414.00
2018-11-22T13:53:46.301Z,101416.00
2018-11-22T13:56:15.707Z,101422.00
2018-11-22T13:58:45.732Z,101419.00
2018-11-22T14:01:15.488Z,101421.00
2018-11-22T14:03:45.013Z,101412.00
2018-11-22T14:06:14.689Z,101422.00
2018-11-22T14:08:44.927Z,101423.00
2018-11-22T14:11:15.386Z,101420.00
2018-11-22T14:13:44.980Z,101424.00
2018-11-22T14:16:14.957Z,101421.00
2018-11-22T14:18:44.679Z,101423.00
2018-11-22T14:21:14.952Z,101424.00
2018-11-22T14:23:44.819Z,101422.00
2018-11-22T14:26:14.701Z,101428.00
2018-11-22T14:28:44.557Z,101426.00
2018-11-22T14:31:14.151Z,101420.00
2018-11-22T14:33:45.122Z,101421.00
2018-11-22T14:36:14.797Z,101420.00
2018-11-22T14:38:44.517Z,101429.00
2018-11-22T14:41:13.891Z,101431.00
2018-11-22T14:43:43.462Z,101421.00
2018-11-22T14:46:12.923Z,101420.00
2018-11-22T14:48:42.030Z,101425.00
2018-11-22T14:51:35.319Z,101423.00
2018-11-22T14:54:04.966Z,101431.00
2018-11-22T14:56:34.320Z,101429.00
2018-11-22T14:59:03.484Z,101425.00
2018-11-22T15:01:32.765Z,101421.00
2018-11-22T15:04:01.890Z,101426.00
2018-11-22T15:06:30.974Z,101428.00
2018-11-22T15:09:00.702Z,101417.00
2018-11-22T15:11:29.946Z,101417.00
2018-11-22T15:13:59.164Z,101406.00
2018-11-22T15:16:28.313Z,101412.00
2018-11-22T15:18:57.476Z,101415.00
2018-11-22T15:21:26.594Z,101422.00
2018-11-22T15:23:55.796Z,101423.00
2018-11-22T15:26:24.960Z,101426.00
2018-11-22T15:28:54.076Z,101418.00
2018-11-22T15:31:23.310Z,101427.00
2018-11-22T15:33:52.586Z,101422.00
2018-11-22T15:36:21.660Z,101420.00
2018-11-22T15:38:50.780Z,101417.00
2018-11-22T15:41:19.874Z,101415.00
2018-11-22T15:43:49.040Z,101414.00
2018-11-22T15:46:18.231Z,101421.00
2018-11-22T15:48:47.472Z,101412.00
2018-11-22T15:51:16.852Z,101415.00
2018-11-22T15:53:46.078Z,101428.00
2018-11-22T15:56:15.472Z,101428.00
2018-11-22T15:58:44.622Z,101431.00
2018-11-22T16:01:13.738Z,101443.00
2018-11-22T16:03:42.944Z,101438.00
2018-11-22T16:06:12.168Z,101440.00
2018-11-22T16:08:41.396Z,101439.00
2018-11-22T16:11:14.763Z,101432.00
2018-11-22T16:13:40.144Z,101431.00
2018-11-22T16:16:09.336Z,101427.00
2018-11-22T16:18:38.612Z,101436.00
2018-11-22T16:21:07.879Z,101442.00
2018-11-22T16:23:37.000Z,101433.00
2018-11-22T16:26:06.329Z,101440.00
2018-11-22T16:28:35.506Z,101439.00
2018-11-22T16:31:04.863Z,101429.00
2018-11-22T16:33:34.126Z,101435.00
2018-11-22T16:36:03.394Z,101434.00
2018-11-22T16:38:32.612Z,101428.00
2018-11-22T16:41:01.931Z,101431.00
2018-11-22T16:43:31.090Z,101432.00
2018-11-22T16:46:00.485Z,101431.00
2018-11-22T16:48:29.783Z,101433.00
2018-11-22T16:50:58.898Z,101432.00
2018-11-22T16:53:27.986Z,101434.00
2018-11-22T16:55:57.319Z,101428.00
2018-11-22T16:58:26.542Z,101429.00
2018-11-22T17:00:56.209Z,101424.00
2018-11-22T17:03:25.697Z,101432.00
2018-11-22T17:05:55.150Z,101429.00
2018-11-22T17:08:24.304Z,101426.00
2018-11-22T17:10:53.845Z,101426.00
2018-11-22T17:13:23.065Z,101424.00
2018-11-22T17:15:52.632Z,101430.00
2018-11-22T17:18:21.941Z,101431.00
2018-11-22T17:20:51.184Z,101420.00
2018-11-22T17:23:20.425Z,101426.00
2018-11-22T17:25:50.562Z,101424.00
2018-11-22T17:28:19.886Z,101418.00
2018-11-22T17:30:49.083Z,101429.00
2018-11-22T17:33:18.351Z,101420.00
2018-11-22T17:35:47.654Z,101420.00
2018-11-22T17:38:16.808Z,101430.00
2018-11-22T17:40:47.703Z,101414.00
2018-11-22T17:43:17.024Z,101427.00
2018-11-22T17:45:47.787Z,101429.00
2018-11-22T17:48:18.085Z,101434.00
2018-11-22T17:50:48.308Z,101422.00
2018-11-22T17:53:17.967Z,101424.00
2018-11-22T17:55:47.433Z,101432.00
2018-11-22T17:58:17.235Z,101423.00
2018-11-22T18:00:48.537Z,101425.00
2018-11-22T18:03:18.153Z,101426.00
2018-11-22T18:05:48.005Z,101435.00
2018-11-22T18:08:18.603Z,101430.00
2018-11-22T18:10:48.229Z,101430.00
2018-11-22T18:13:17.968Z,101426.00
2018-11-22T18:15:52.537Z,101429.00
2018-11-22T18:18:22.014Z,101427.00
2018-11-22T18:20:51.249Z,101428.00
2018-11-22T18:23:20.546Z,101431.00
2018-11-22T18:25:50.561Z,101431.00
2018-11-22T18:28:21.709Z,101428.00
2018-11-22T18:30:51.435Z,101427.00
2018-11-22T18:33:21.568Z,101433.00
2018-11-22T18:35:50.973Z,101422.00
2018-11-22T18:38:20.276Z,101434.00
2018-11-22T18:40:50.362Z,101428.00
2018-11-22T18:43:19.849Z,101423.00
2018-11-22T18:45:49.551Z,101428.00
2018-11-22T18:48:20.095Z,101419.00
2018-11-22T18:50:49.805Z,101433.00
2018-11-22T18:53:18.974Z,101440.00
2018-11-22T18:55:48.620Z,101428.00
2018-11-22T18:58:18.120Z,101431.00
2018-11-22T19:00:47.711Z,101426.00
2018-11-22T19:03:18.629Z,101443.00
2018-11-22T19:05:47.806Z,101434.00
2018-11-22T19:08:16.962Z,101447.00
2018-11-22T19:10:46.271Z,101439.00
2018-11-22T19:13:16.108Z,101431.00
2018-11-22T19:15:46.903Z,101426.00
2018-11-22T19:18:16.715Z,101433.00
2018-11-22T19:20:46.356Z,101432.00
2018-11-22T19:23:16.813Z,101424.00
2018-11-22T19:25:46.054Z,101419.00
2018-11-22T19:28:22.068Z,101427.00
2018-11-22T19:30:51.406Z,101413.00
2018-11-22T19:33:21.406Z,101419.00
2018-11-22T19:35:52.666Z,101416.00
2018-11-22T19:38:22.144Z,101402.00
2018-11-22T19:40:51.760Z,101421.00
2018-11-22T19:43:21.032Z,101420.00
2018-11-22T19:45:51.070Z,101423.00
2018-11-22T19:48:20.772Z,101410.00
2018-11-22T19:50:50.209Z,101413.00
2018-11-22T19:53:20.277Z,101420.00
2018-11-22T19:55:50.679Z,101421.00
2018-11-22T19:58:20.188Z,101423.00
2018-11-22T20:00:49.494Z,101423.00
2018-11-22T20:03:20.563Z,101425.00
2018-11-22T20:05:50.016Z,101422.00
2018-11-22T20:08:20.269Z,101418.00
2018-11-22T20:10:50.240Z,101416.00
2018-11-22T20:13:19.469Z,101423.00
2018-11-22T20:15:49.171Z,101426.00
2018-11-22T20:18:18.736Z,101440.00
2018-11-22T20:20:54.917Z,101434.00
2018-11-22T20:23:24.346Z,101435.00
2018-11-22T20:25:54.275Z,101429.00
2018-11-22T20:28:23.853Z,101442.00
2018-11-22T20:30:53.288Z,101432.00
2018-11-22T20:33:23.421Z,101436.00
2018-11-22T20:35:52.927Z,101429.00
2018-11-22T20:38:22.423Z,101423.00
2018-11-22T20:40:57.270Z,101433.00
2018-11-22T20:43:21.470Z,101431.00
2018-11-22T20:45:51.250Z,101441.00
2018-11-22T20:48:21.782Z,101447.00
2018-11-22T20:50:51.552Z,101431.00
2018-11-22T20:53:21.017Z,101434.00
2018-11-22T20:55:50.535Z,101427.00
2018-11-22T20:58:20.041Z,101441.00
2018-11-22T21:00:49.952Z,101435.00
2018-11-22T21:03:19.361Z,101439.00
2018-11-22T21:05:49.459Z,101438.00
2018-11-22T21:08:18.680Z,101435.00
2018-11-22T21:10:48.776Z,101431.00
2018-11-22T21:13:18.574Z,101430.00
2018-11-22T21:15:48.059Z,101443.00
2018-11-22T21:18:18.142Z,101438.00
2018-11-22T21:20:47.393Z,101429.00
2018-11-22T21:23:17.202Z,101429.00
2018-11-22T21:25:46.780Z,101427.00
2018-11-22T21:28:16.158Z,101426.00
2018-11-22T21:30:45.670Z,101423.00
2018-11-22T21:33:14.940Z,101423.00
2018-11-22T21:35:44.343Z,101427.00
2018-11-22T21:38:13.600Z,101422.00
2018-11-22T21:40:43.174Z,101437.00
2018-11-22T21:43:12.516Z,101417.00
2018-11-22T21:45:42.290Z,101422.00
2018-11-22T21:48:12.035Z,101423.00
2018-11-22T21:50:41.354Z,101419.00
2018-11-22T21:53:10.968Z,101429.00
2018-11-22T21:55:40.790Z,101438.00
2018-11-22T21:58:10.496Z,101428.00
2018-11-22T22:00:42.135Z,101425.00
2018-11-22T22:03:12.717Z,101424.00
2018-11-22T22:05:42.647Z,101423.00
2018-11-22T22:08:12.003Z,101424.00
2018-11-22T22:10:41.677Z,101422.00
2018-11-22T22:13:11.070Z,101417.00
2018-11-22T22:15:40.855Z,101423.00
2018-11-22T22:18:10.626Z,101411.00
2018-11-22T22:20:40.381Z,101412.00
2018-11-22T22:23:13.525Z,101417.00
2018-11-22T22:25:39.508Z,101419.00
2018-11-22T22:28:09.574Z,101419.00
2018-11-22T22:30:39.242Z,101415.00
2018-11-22T22:33:08.875Z,101416.00
2018-11-22T22:35:39.064Z,101420.00
2018-11-22T22:38:09.727Z,101418.00
2018-11-22T22:40:39.888Z,101427.00
2018-11-22T22:43:09.350Z,101415.00
2018-11-22T22:45:38.827Z,101409.00
2018-11-22T22:48:08.461Z,101408.00
2018-11-22T22:50:38.002Z,101415.00
2018-11-22T22:53:07.461Z,101420.00
2018-11-22T22:55:36.973Z,101412.00
2018-11-22T22:58:06.728Z,101408.00
2018-11-22T23:00:45.668Z,101407.00
2018-11-22T23:03:15.936Z,101389.00
2018-11-22T23:05:45.666Z,101391.00
2018-11-22T23:08:15.330Z,101392.00
2018-11-22T23:10:44.551Z,101393.00
2018-11-22T23:13:14.571Z,101406.00
2018-11-22T23:15:44.399Z,101402.00
2018-11-22T23:18:14.691Z,101401.00
2018-11-22T23:20:44.343Z,101406.00
2018-11-22T23:23:14.038Z,101401.00
2018-11-22T23:25:43.545Z,101405.00
2018-11-22T23:28:13.749Z,101397.00
2018-11-22T23:30:44.108Z,101396.00
2018-11-22T23:33:13.633Z,101397.00
2018-11-22T23:35:43.057Z,101404.00
2018-11-22T23:38:12.473Z,101404.00
2018-11-22T23:40:42.323Z,101394.00
2018-11-22T23:43:12.011Z,101399.00
2018-11-22T23:45:41.795Z,101404.00
2018-11-22T23:48:11.112Z,101408.00
2018-11-22T23:50:40.258Z,101403.00
2018-11-22T23:53:09.529Z,101420.00
2018-11-22T23:55:39.043Z,101410.00
2018-11-22T23:58:08.785Z,101402.00
